createdAt,value
2016-06-29T04:51:19.691Z,98448
2016-06-29T04:51:47.990Z,98442
2016-06-29T04:52:13.388Z,98451
2016-06-29T04:52:41.678Z,98448
2016-06-29T04:53:09.954Z,98448
2016-06-29T04:53:35.702Z,98436
2016-06-29T04:54:01.023Z,98453
2016-06-29T04:54:29.718Z,98436
2016-06-29T04:54:55.122Z,98445
2016-06-29T04:55:20.463Z,98453
2016-06-29T04:55:46.244Z,98445
2016-06-29T04:56:11.663Z,98447
2016-06-29T04:56:37.062Z,98453
2016-06-29T04:57:02.463Z,98448
2016-06-29T04:57:27.862Z,98445
2016-06-29T04:57:53.264Z,98456
2016-06-29T04:58:18.982Z,98459
2016-06-29T04:58:44.343Z,98459
2016-06-29T04:59:09.746Z,98453
2016-06-29T04:59:35.189Z,98456
2016-06-29T05:00:01.181Z,98442
2016-06-29T05:00:23.595Z,98444
2016-06-29T05:00:49.041Z,98459
2016-06-29T05:01:11.749Z,98442
2016-06-29T05:01:37.131Z,98456
2016-06-29T05:02:02.573Z,98459
2016-06-29T05:02:28.252Z,98461
2016-06-29T05:02:53.615Z,98456
2016-06-29T05:03:18.940Z,98470
2016-06-29T05:03:44.246Z,98444
2016-06-29T05:04:09.990Z,98456
2016-06-29T05:04:35.950Z,98453
2016-06-29T05:05:01.266Z,98453
2016-06-29T05:05:23.597Z,98456
2016-06-29T05:05:49.568Z,98447
2016-06-29T05:06:14.953Z,98461
2016-06-29T05:06:40.357Z,98458
2016-06-29T05:07:05.779Z,98447
2016-06-29T05:07:27.258Z,98461
2016-06-29T05:07:50.921Z,98461
2016-06-29T05:08:17.255Z,98461
2016-06-29T05:08:42.647Z,98458
2016-06-29T05:09:08.012Z,98458
2016-06-29T05:09:31.919Z,98450
2016-06-29T05:09:54.993Z,98461
2016-06-29T05:10:17.368Z,98467
2016-06-29T05:10:42.750Z,98456
2016-06-29T05:11:10.970Z,98458
2016-06-29T05:11:37.573Z,98455
2016-06-29T05:12:02.922Z,98467
2016-06-29T05:12:28.773Z,98467
2016-06-29T05:12:57.632Z,98461
2016-06-29T05:13:23.064Z,98458
2016-06-29T05:13:46.277Z,98473
2016-06-29T05:14:11.671Z,98475
2016-06-29T05:14:37.030Z,98458
2016-06-29T05:15:02.441Z,98461
2016-06-29T05:15:27.881Z,98461
2016-06-29T05:15:53.227Z,98472
2016-06-29T05:16:20.006Z,98467
2016-06-29T05:16:46.614Z,98464
2016-06-29T05:17:12.015Z,98475
2016-06-29T05:17:37.449Z,98470
2016-06-29T05:18:06.183Z,98472
2016-06-29T05:18:31.568Z,98472
2016-06-29T05:18:51.977Z,98461
2016-06-29T05:19:17.351Z,98472
2016-06-29T05:19:42.695Z,98467
2016-06-29T05:20:08.071Z,98464
2016-06-29T05:20:33.478Z,98480
2016-06-29T05:20:59.387Z,98475
2016-06-29T05:21:24.689Z,98475
2016-06-29T05:21:50.383Z,98475
2016-06-29T05:22:15.749Z,98475
2016-06-29T05:22:41.074Z,98473
2016-06-29T05:23:06.458Z,98473
2016-06-29T05:23:31.806Z,98480
2016-06-29T05:23:55.695Z,98473
2016-06-29T05:24:18.586Z,98473
2016-06-29T05:24:43.985Z,98480
2016-06-29T05:25:06.376Z,98475
2016-06-29T05:25:31.746Z,98483
2016-06-29T05:25:54.111Z,98475
2016-06-29T05:26:19.493Z,98483
2016-06-29T05:26:45.167Z,98483
2016-06-29T05:27:10.543Z,98480
2016-06-29T05:27:35.869Z,98483
2016-06-29T05:27:58.294Z,98480
2016-06-29T05:28:23.695Z,98475
2016-06-29T05:28:49.072Z,98477
2016-06-29T05:29:15.075Z,98495
2016-06-29T05:29:43.369Z,98483
2016-06-29T05:30:08.732Z,98480
2016-06-29T05:30:34.105Z,98483
2016-06-29T05:30:56.521Z,98480
2016-06-29T05:31:21.911Z,98476
2016-06-29T05:31:47.326Z,98492
2016-06-29T05:32:09.717Z,98489
2016-06-29T05:32:35.133Z,98480
2016-06-29T05:33:00.507Z,98478
2016-06-29T05:33:23.482Z,98480
2016-06-29T05:33:48.890Z,98473
2016-06-29T05:34:08.305Z,98473
2016-06-29T05:34:33.553Z,98480
2016-06-29T05:35:01.850Z,98483
2016-06-29T05:35:27.238Z,98483
2016-06-29T05:35:49.684Z,98483
2016-06-29T05:36:12.072Z,98486
2016-06-29T05:36:34.487Z,98483
2016-06-29T05:37:00.400Z,98483
2016-06-29T05:37:22.756Z,98483
2016-06-29T05:37:49.545Z,98476
2016-06-29T05:38:14.962Z,98483
2016-06-29T05:38:44.445Z,98486
2016-06-29T05:39:09.919Z,98478
2016-06-29T05:39:32.741Z,98486
2016-06-29T05:39:58.125Z,98486
2016-06-29T05:40:24.979Z,98495
2016-06-29T05:40:50.458Z,98481
2016-06-29T05:41:12.745Z,98489
2016-06-29T05:41:35.328Z,98495
2016-06-29T05:42:06.320Z,98492
